Terminal Aerodrome Forecast
Issued by NWS Charleston, SC

Home | Current Version | Previous Version | Text Only | Print | Product List | Glossary On
Versions: 1 2 3 4 5 6 7 8 9 10 11 12 13 14 15 16 17 18 19 20
000
FTUS42 KCHS 231700
TAFCHS
TAF
KCHS 231726Z 2318/2418 32008KT P6SM SKC
     FM232300 01004KT P6SM SKC
     FM240800 04007KT P6SM SKC
     FM241400 09009KT P6SM SKC=

USA.gov is the U.S. government's official web portal to all federal, state and local government web resources and services.